sensor_id;sensor_type;location;lat;lon;timestamp;temperature;humidity
57857;DHT22;43683;48.650;9.290;2023-02-15T00:00:16;-3.00;85.90
57857;DHT22;43683;48.650;9.290;2023-02-15T00:02:42;-3.00;85.80
57857;DHT22;43683;48.650;9.290;2023-02-15T00:05:08;-3.00;85.70
57857;DHT22;43683;48.650;9.290;2023-02-15T00:07:34;-3.00;85.90
57857;DHT22;43683;48.650;9.290;2023-02-15T00:09:59;-3.10;86.00
57857;DHT22;43683;48.650;9.290;2023-02-15T00:12:25;-3.20;86.10
57857;DHT22;43683;48.650;9.290;2023-02-15T00:14:50;-3.20;86.40
57857;DHT22;43683;48.650;9.290;2023-02-15T00:17:16;-3.20;86.50
57857;DHT22;43683;48.650;9.290;2023-02-15T00:19:41;-3.20;86.30
57857;DHT22;43683;48.650;9.290;2023-02-15T00:22:07;-3.30;86.50
57857;DHT22;43683;48.650;9.290;2023-02-15T00:24:33;-3.20;86.60
57857;DHT22;43683;48.650;9.290;2023-02-15T00:26:58;-3.20;86.40
57857;DHT22;43683;48.650;9.290;2023-02-15T00:29:24;-3.30;86.40
57857;DHT22;43683;48.650;9.290;2023-02-15T00:31:50;-3.30;86.60
57857;DHT22;43683;48.650;9.290;2023-02-15T00:34:22;-3.40;86.60
57857;DHT22;43683;48.650;9.290;2023-02-15T00:36:48;-3.40;86.60
57857;DHT22;43683;48.650;9.290;2023-02-15T00:39:14;-3.30;86.50
57857;DHT22;43683;48.650;9.290;2023-02-15T00:41:40;-3.30;86.40
57857;DHT22;43683;48.650;9.290;2023-02-15T00:44:06;-3.40;86.60
57857;DHT22;43683;48.650;9.290;2023-02-15T00:46:32;-3.40;86.80
57857;DHT22;43683;48.650;9.290;2023-02-15T00:48:57;-3.30;86.70
57857;DHT22;43683;48.650;9.290;2023-02-15T00:51:23;-3.30;86.40
57857;DHT22;43683;48.650;9.290;2023-02-15T00:53:49;-3.30;86.50
57857;DHT22;43683;48.650;9.290;2023-02-15T00:56:15;-3.40;86.70
57857;DHT22;43683;48.650;9.290;2023-02-15T00:58:41;-3.40;86.80
57857;DHT22;43683;48.650;9.290;2023-02-15T01:01:12;-3.40;86.70
57857;DHT22;43683;48.650;9.290;2023-02-15T01:03:38;-3.30;86.80
57857;DHT22;43683;48.650;9.290;2023-02-15T01:06:07;-3.30;86.80
57857;DHT22;43683;48.650;9.290;2023-02-15T01:08:33;-3.20;86.60
57857;DHT22;43683;48.650;9.290;2023-02-15T01:11:07;-3.20;86.40
57857;DHT22;43683;48.650;9.290;2023-02-15T01:13:33;-3.20;86.40
57857;DHT22;43683;48.650;9.290;2023-02-15T01:15:58;-3.20;86.30
57857;DHT22;43683;48.650;9.290;2023-02-15T01:18:24;-3.30;86.70
57857;DHT22;43683;48.650;9.290;2023-02-15T01:20:49;-3.30;86.90
57857;DHT22;43683;48.650;9.290;2023-02-15T01:23:15;-3.40;87.10
57857;DHT22;43683;48.650;9.290;2023-02-15T01:25:41;-3.40;87.20
57857;DHT22;43683;48.650;9.290;2023-02-15T01:28:06;-3.50;87.20
57857;DHT22;43683;48.650;9.290;2023-02-15T01:30:32;-3.50;87.50
57857;DHT22;43683;48.650;9.290;2023-02-15T01:32:57;-3.50;87.50
57857;DHT22;43683;48.650;9.290;2023-02-15T01:35:24;-3.40;87.70
57857;DHT22;43683;48.650;9.290;2023-02-15T01:37:49;-3.30;87.50
57857;DHT22;43683;48.650;9.290;2023-02-15T01:40:17;-3.20;87.30
57857;DHT22;43683;48.650;9.290;2023-02-15T01:42:44;-3.30;87.20
57857;DHT22;43683;48.650;9.290;2023-02-15T01:45:28;-3.30;87.40
57857;DHT22;43683;48.650;9.290;2023-02-15T01:48:24;-3.40;87.80
57857;DHT22;43683;48.650;9.290;2023-02-15T01:51:01;-3.50;88.00
57857;DHT22;43683;48.650;9.290;2023-02-15T01:53:37;-3.50;88.10
57857;DHT22;43683;48.650;9.290;2023-02-15T01:56:23;-3.50;87.90
57857;DHT22;43683;48.650;9.290;2023-02-15T01:58:52;-3.60;88.10
57857;DHT22;43683;48.650;9.290;2023-02-15T02:01:19;-3.50;87.90
57857;DHT22;43683;48.650;9.290;2023-02-15T02:06:32;-3.60;88.00
57857;DHT22;43683;48.650;9.290;2023-02-15T02:08:58;-3.60;88.10
57857;DHT22;43683;48.650;9.290;2023-02-15T02:11:24;-3.60;88.10
57857;DHT22;43683;48.650;9.290;2023-02-15T02:13:51;-3.60;87.90
57857;DHT22;43683;48.650;9.290;2023-02-15T02:16:41;-3.60;88.10
57857;DHT22;43683;48.650;9.290;2023-02-15T02:19:24;-3.70;88.30
57857;DHT22;43683;48.650;9.290;2023-02-15T02:24:54;-3.70;88.10
57857;DHT22;43683;48.650;9.290;2023-02-15T02:27:57;-3.70;88.40
57857;DHT22;43683;48.650;9.290;2023-02-15T02:30:54;-3.70;88.40
57857;DHT22;43683;48.650;9.290;2023-02-15T02:33:40;-3.80;88.50
57857;DHT22;43683;48.650;9.290;2023-02-15T02:41:50;-3.80;88.20
57857;DHT22;43683;48.650;9.290;2023-02-15T02:44:25;-3.90;88.40
57857;DHT22;43683;48.650;9.290;2023-02-15T02:46:58;-3.90;88.50
57857;DHT22;43683;48.650;9.290;2023-02-15T02:49:36;-3.90;88.40
57857;DHT22;43683;48.650;9.290;2023-02-15T02:52:05;-3.90;88.40
57857;DHT22;43683;48.650;9.290;2023-02-15T02:54:33;-3.90;88.30
57857;DHT22;43683;48.650;9.290;2023-02-15T02:57:03;-4.00;88.40
57857;DHT22;43683;48.650;9.290;2023-02-15T02:59:37;-4.00;88.60
57857;DHT22;43683;48.650;9.290;2023-02-15T03:02:09;-3.90;88.50
57857;DHT22;43683;48.650;9.290;2023-02-15T03:04:41;-4.00;88.50
57857;DHT22;43683;48.650;9.290;2023-02-15T03:07:14;-4.00;88.60
57857;DHT22;43683;48.650;9.290;2023-02-15T03:09:46;-3.90;88.50
57857;DHT22;43683;48.650;9.290;2023-02-15T03:12:22;-3.90;88.40
57857;DHT22;43683;48.650;9.290;2023-02-15T03:15:06;-3.90;88.30
57857;DHT22;43683;48.650;9.290;2023-02-15T03:17:35;-3.90;88.60
57857;DHT22;43683;48.650;9.290;2023-02-15T03:20:06;-4.00;88.60
57857;DHT22;43683;48.650;9.290;2023-02-15T03:22:40;-4.10;88.80
57857;DHT22;43683;48.650;9.290;2023-02-15T03:25:15;-4.10;88.90
57857;DHT22;43683;48.650;9.290;2023-02-15T03:27:49;-4.10;89.00
57857;DHT22;43683;48.650;9.290;2023-02-15T03:30:19;-4.10;89.00
57857;DHT22;43683;48.650;9.290;2023-02-15T03:32:47;-4.20;89.00
57857;DHT22;43683;48.650;9.290;2023-02-15T03:35:13;-4.20;89.00
57857;DHT22;43683;48.650;9.290;2023-02-15T03:37:57;-4.20;89.00
57857;DHT22;43683;48.650;9.290;2023-02-15T03:40:37;-4.20;89.20
57857;DHT22;43683;48.650;9.290;2023-02-15T03:46:28;-4.00;88.60
57857;DHT22;43683;48.650;9.290;2023-02-15T03:51:31;-3.90;88.20
57857;DHT22;43683;48.650;9.290;2023-02-15T03:54:09;-3.80;88.10
57857;DHT22;43683;48.650;9.290;2023-02-15T03:56:37;-3.60;87.80
57857;DHT22;43683;48.650;9.290;2023-02-15T03:59:04;-3.50;87.40
57857;DHT22;43683;48.650;9.290;2023-02-15T04:04:41;-3.20;86.90
57857;DHT22;43683;48.650;9.290;2023-02-15T04:07:08;-3.10;86.50
57857;DHT22;43683;48.650;9.290;2023-02-15T04:09:34;-3.00;86.40
57857;DHT22;43683;48.650;9.290;2023-02-15T04:12:19;-2.90;86.30
57857;DHT22;43683;48.650;9.290;2023-02-15T04:14:44;-2.80;86.10
57857;DHT22;43683;48.650;9.290;2023-02-15T04:17:29;-2.70;86.10
57857;DHT22;43683;48.650;9.290;2023-02-15T04:19:54;-2.70;86.00
57857;DHT22;43683;48.650;9.290;2023-02-15T04:22:39;-2.60;86.20
57857;DHT22;43683;48.650;9.290;2023-02-15T04:25:23;-2.60;86.20
57857;DHT22;43683;48.650;9.290;2023-02-15T04:27:50;-2.60;86.50
57857;DHT22;43683;48.650;9.290;2023-02-15T04:30:18;-2.60;86.60
57857;DHT22;43683;48.650;9.290;2023-02-15T04:32:45;-2.60;86.90
57857;DHT22;43683;48.650;9.290;2023-02-15T04:35:11;-2.70;87.20
57857;DHT22;43683;48.650;9.290;2023-02-15T04:37:37;-2.80;87.40
57857;DHT22;43683;48.650;9.290;2023-02-15T04:40:04;-2.80;87.60
57857;DHT22;43683;48.650;9.290;2023-02-15T04:42:29;-2.80;87.70
57857;DHT22;43683;48.650;9.290;2023-02-15T04:44:55;-2.90;88.00
57857;DHT22;43683;48.650;9.290;2023-02-15T04:47:21;-3.00;88.40
57857;DHT22;43683;48.650;9.290;2023-02-15T04:49:47;-3.00;88.70
57857;DHT22;43683;48.650;9.290;2023-02-15T04:52:12;-3.10;88.90
57857;DHT22;43683;48.650;9.290;2023-02-15T04:54:38;-3.20;89.00
57857;DHT22;43683;48.650;9.290;2023-02-15T04:57:04;-3.20;89.00
57857;DHT22;43683;48.650;9.290;2023-02-15T04:59:30;-3.30;89.10
57857;DHT22;43683;48.650;9.290;2023-02-15T05:01:56;-3.40;89.30
57857;DHT22;43683;48.650;9.290;2023-02-15T05:04:22;-3.50;89.40
57857;DHT22;43683;48.650;9.290;2023-02-15T05:06:47;-3.60;89.70
57857;DHT22;43683;48.650;9.290;2023-02-15T05:09:13;-3.70;89.80
57857;DHT22;43683;48.650;9.290;2023-02-15T05:11:39;-3.80;89.80
57857;DHT22;43683;48.650;9.290;2023-02-15T05:14:05;-3.80;90.30
57857;DHT22;43683;48.650;9.290;2023-02-15T05:16:30;-3.80;89.90
57857;DHT22;43683;48.650;9.290;2023-02-15T05:18:56;-3.80;89.80
57857;DHT22;43683;48.650;9.290;2023-02-15T05:21:21;-3.90;89.70
57857;DHT22;43683;48.650;9.290;2023-02-15T05:23:47;-3.80;89.70
57857;DHT22;43683;48.650;9.290;2023-02-15T05:26:19;-3.90;89.80
57857;DHT22;43683;48.650;9.290;2023-02-15T05:29:03;-3.80;89.90
57857;DHT22;43683;48.650;9.290;2023-02-15T05:31:30;-3.60;89.40
57857;DHT22;43683;48.650;9.290;2023-02-15T05:33:55;-3.60;89.10
57857;DHT22;43683;48.650;9.290;2023-02-15T05:36:21;-3.50;88.90
57857;DHT22;43683;48.650;9.290;2023-02-15T05:38:46;-3.40;88.60
57857;DHT22;43683;48.650;9.290;2023-02-15T05:41:12;-3.40;88.50
57857;DHT22;43683;48.650;9.290;2023-02-15T05:43:37;-3.40;89.10
57857;DHT22;43683;48.650;9.290;2023-02-15T05:46:04;-3.40;88.50
57857;DHT22;43683;48.650;9.290;2023-02-15T05:48:30;-3.50;88.90
57857;DHT22;43683;48.650;9.290;2023-02-15T05:51:01;-3.60;89.30
57857;DHT22;43683;48.650;9.290;2023-02-15T05:53:28;-3.70;89.60
57857;DHT22;43683;48.650;9.290;2023-02-15T05:55:54;-3.80;89.80
57857;DHT22;43683;48.650;9.290;2023-02-15T05:58:28;-3.80;89.80
57857;DHT22;43683;48.650;9.290;2023-02-15T06:00:54;-3.80;90.10
57857;DHT22;43683;48.650;9.290;2023-02-15T06:03:20;-3.80;89.60
57857;DHT22;43683;48.650;9.290;2023-02-15T06:05:46;-3.90;90.00
57857;DHT22;43683;48.650;9.290;2023-02-15T06:08:11;-4.10;90.10
57857;DHT22;43683;48.650;9.290;2023-02-15T06:10:37;-4.20;90.20
57857;DHT22;43683;48.650;9.290;2023-02-15T06:13:02;-4.20;90.30
57857;DHT22;43683;48.650;9.290;2023-02-15T06:15:28;-4.20;90.30
57857;DHT22;43683;48.650;9.290;2023-02-15T06:17:53;-4.30;90.30
57857;DHT22;43683;48.650;9.290;2023-02-15T06:20:19;-4.30;90.40
57857;DHT22;43683;48.650;9.290;2023-02-15T06:22:44;-4.40;90.40
57857;DHT22;43683;48.650;9.290;2023-02-15T06:25:10;-4.40;90.40
57857;DHT22;43683;48.650;9.290;2023-02-15T06:27:36;-4.40;90.40
57857;DHT22;43683;48.650;9.290;2023-02-15T06:30:04;-4.40;90.30
57857;DHT22;43683;48.650;9.290;2023-02-15T06:32:29;-4.40;90.30
57857;DHT22;43683;48.650;9.290;2023-02-15T06:34:55;-4.40;90.40
57857;DHT22;43683;48.650;9.290;2023-02-15T06:37:20;-4.40;90.30
57857;DHT22;43683;48.650;9.290;2023-02-15T06:39:46;-4.40;90.30
57857;DHT22;43683;48.650;9.290;2023-02-15T06:42:11;-4.40;90.20
57857;DHT22;43683;48.650;9.290;2023-02-15T06:44:37;-4.40;90.20
57857;DHT22;43683;48.650;9.290;2023-02-15T06:47:02;-4.40;90.30
57857;DHT22;43683;48.650;9.290;2023-02-15T06:49:28;-4.40;90.30
57857;DHT22;43683;48.650;9.290;2023-02-15T06:51:53;-4.50;90.30
57857;DHT22;43683;48.650;9.290;2023-02-15T06:54:19;-4.50;90.30
57857;DHT22;43683;48.650;9.290;2023-02-15T06:56:44;-4.50;90.30
57857;DHT22;43683;48.650;9.290;2023-02-15T06:59:10;-4.40;90.30
57857;DHT22;43683;48.650;9.290;2023-02-15T07:01:35;-4.40;90.20
57857;DHT22;43683;48.650;9.290;2023-02-15T07:04:02;-4.40;90.20
57857;DHT22;43683;48.650;9.290;2023-02-15T07:06:31;-4.30;90.10
57857;DHT22;43683;48.650;9.290;2023-02-15T07:08:58;-4.20;90.00
57857;DHT22;43683;48.650;9.290;2023-02-15T07:11:24;-4.20;90.00
57857;DHT22;43683;48.650;9.290;2023-02-15T07:14:08;-4.20;90.00
57857;DHT22;43683;48.650;9.290;2023-02-15T07:16:33;-4.00;89.90
57857;DHT22;43683;48.650;9.290;2023-02-15T07:18:59;-3.90;89.70
57857;DHT22;43683;48.650;9.290;2023-02-15T07:21:24;-3.80;89.50
57857;DHT22;43683;48.650;9.290;2023-02-15T07:23:50;-3.70;89.30
57857;DHT22;43683;48.650;9.290;2023-02-15T07:26:15;-3.50;89.40
57857;DHT22;43683;48.650;9.290;2023-02-15T07:28:41;-3.30;89.40
57857;DHT22;43683;48.650;9.290;2023-02-15T07:31:07;-3.20;89.20
57857;DHT22;43683;48.650;9.290;2023-02-15T07:33:33;-3.00;90.00
57857;DHT22;43683;48.650;9.290;2023-02-15T07:36:01;-2.80;89.90
57857;DHT22;43683;48.650;9.290;2023-02-15T07:38:30;-2.50;90.20
57857;DHT22;43683;48.650;9.290;2023-02-15T07:41:00;-2.20;90.40
57857;DHT22;43683;48.650;9.290;2023-02-15T07:43:27;-1.90;90.50
57857;DHT22;43683;48.650;9.290;2023-02-15T07:45:52;-1.60;90.60
57857;DHT22;43683;48.650;9.290;2023-02-15T07:48:18;-1.40;90.60
57857;DHT22;43683;48.650;9.290;2023-02-15T07:50:44;-1.10;90.60
57857;DHT22;43683;48.650;9.290;2023-02-15T07:53:09;-0.90;90.80
57857;DHT22;43683;48.650;9.290;2023-02-15T07:55:35;-0.70;90.80
57857;DHT22;43683;48.650;9.290;2023-02-15T07:58:00;-0.40;91.00
57857;DHT22;43683;48.650;9.290;2023-02-15T08:00:26;-0.20;91.20
57857;DHT22;43683;48.650;9.290;2023-02-15T08:02:55;0.00;91.70
57857;DHT22;43683;48.650;9.290;2023-02-15T08:05:40;0.20;91.60
57857;DHT22;43683;48.650;9.290;2023-02-15T08:08:07;0.40;91.90
57857;DHT22;43683;48.650;9.290;2023-02-15T08:10:33;0.60;92.00
57857;DHT22;43683;48.650;9.290;2023-02-15T08:13:18;0.70;92.20
57857;DHT22;43683;48.650;9.290;2023-02-15T08:15:49;0.90;92.50
57857;DHT22;43683;48.650;9.290;2023-02-15T08:18:14;1.00;92.80
57857;DHT22;43683;48.650;9.290;2023-02-15T08:20:39;1.00;93.00
57857;DHT22;43683;48.650;9.290;2023-02-15T08:23:05;1.10;93.40
57857;DHT22;43683;48.650;9.290;2023-02-15T08:25:30;1.20;93.70
57857;DHT22;43683;48.650;9.290;2023-02-15T08:27:56;1.30;93.80
57857;DHT22;43683;48.650;9.290;2023-02-15T08:30:21;1.50;93.90
57857;DHT22;43683;48.650;9.290;2023-02-15T08:32:47;1.60;94.00
57857;DHT22;43683;48.650;9.290;2023-02-15T08:35:13;1.80;94.00
57857;DHT22;43683;48.650;9.290;2023-02-15T08:37:39;2.00;94.00
57857;DHT22;43683;48.650;9.290;2023-02-15T08:40:04;2.30;93.90
57857;DHT22;43683;48.650;9.290;2023-02-15T08:42:32;2.60;93.80
57857;DHT22;43683;48.650;9.290;2023-02-15T08:44:58;2.80;93.60
57857;DHT22;43683;48.650;9.290;2023-02-15T08:47:23;3.10;93.20
57857;DHT22;43683;48.650;9.290;2023-02-15T08:49:49;3.30;92.70
57857;DHT22;43683;48.650;9.290;2023-02-15T08:52:16;3.40;92.20
57857;DHT22;43683;48.650;9.290;2023-02-15T08:54:42;3.70;92.10
57857;DHT22;43683;48.650;9.290;2023-02-15T08:57:07;4.00;92.00
57857;DHT22;43683;48.650;9.290;2023-02-15T08:59:33;4.30;91.90
57857;DHT22;43683;48.650;9.290;2023-02-15T09:01:58;4.60;91.80
57857;DHT22;43683;48.650;9.290;2023-02-15T09:04:24;4.90;91.80
57857;DHT22;43683;48.650;9.290;2023-02-15T09:06:50;5.10;91.70
57857;DHT22;43683;48.650;9.290;2023-02-15T09:09:17;5.20;91.60
57857;DHT22;43683;48.650;9.290;2023-02-15T09:11:45;5.40;91.50
57857;DHT22;43683;48.650;9.290;2023-02-15T09:14:22;5.70;91.40
57857;DHT22;43683;48.650;9.290;2023-02-15T09:16:51;5.90;91.20
57857;DHT22;43683;48.650;9.290;2023-02-15T09:19:18;6.20;90.80
57857;DHT22;43683;48.650;9.290;2023-02-15T09:21:44;6.50;90.50
57857;DHT22;43683;48.650;9.290;2023-02-15T09:24:13;6.80;90.30
57857;DHT22;43683;48.650;9.290;2023-02-15T09:26:41;7.10;89.30
57857;DHT22;43683;48.650;9.290;2023-02-15T09:29:07;7.40;87.70
57857;DHT22;43683;48.650;9.290;2023-02-15T09:31:37;7.70;86.80
57857;DHT22;43683;48.650;9.290;2023-02-15T09:34:03;8.00;86.30
57857;DHT22;43683;48.650;9.290;2023-02-15T09:36:34;8.20;85.80
57857;DHT22;43683;48.650;9.290;2023-02-15T09:39:10;8.30;85.10
57857;DHT22;43683;48.650;9.290;2023-02-15T09:41:40;8.60;83.90
57857;DHT22;43683;48.650;9.290;2023-02-15T10:00:27;9.20;80.00
57857;DHT22;43683;48.650;9.290;2023-02-15T10:11:15;9.50;77.30
57857;DHT22;43683;48.650;9.290;2023-02-15T10:28:01;10.40;73.60
57857;DHT22;43683;48.650;9.290;2023-02-15T10:30:49;10.60;73.60
57857;DHT22;43683;48.650;9.290;2023-02-15T10:33:40;10.80;72.50
57857;DHT22;43683;48.650;9.290;2023-02-15T10:41:34;11.30;70.90
57857;DHT22;43683;48.650;9.290;2023-02-15T11:03:46;12.60;68.30
57857;DHT22;43683;48.650;9.290;2023-02-15T11:06:17;12.70;67.40
57857;DHT22;43683;48.650;9.290;2023-02-15T11:08:51;12.80;66.90
57857;DHT22;43683;48.650;9.290;2023-02-15T11:11:27;12.70;66.00
57857;DHT22;43683;48.650;9.290;2023-02-15T11:13:59;12.80;65.40
57857;DHT22;43683;48.650;9.290;2023-02-15T11:16:31;13.00;64.90
57857;DHT22;43683;48.650;9.290;2023-02-15T11:19:01;13.10;64.20
57857;DHT22;43683;48.650;9.290;2023-02-15T11:21:33;13.20;64.00
57857;DHT22;43683;48.650;9.290;2023-02-15T11:24:17;13.50;63.30
57857;DHT22;43683;48.650;9.290;2023-02-15T11:27:05;13.60;62.50
57857;DHT22;43683;48.650;9.290;2023-02-15T11:32:27;13.60;61.60
57857;DHT22;43683;48.650;9.290;2023-02-15T11:37:40;14.10;60.60
57857;DHT22;43683;48.650;9.290;2023-02-15T11:40:35;14.20;60.10
57857;DHT22;43683;48.650;9.290;2023-02-15T11:43:06;14.20;59.60
57857;DHT22;43683;48.650;9.290;2023-02-15T11:45:34;14.40;59.30
57857;DHT22;43683;48.650;9.290;2023-02-15T11:48:00;14.60;58.80
57857;DHT22;43683;48.650;9.290;2023-02-15T11:50:30;14.70;58.10
57857;DHT22;43683;48.650;9.290;2023-02-15T11:53:03;14.90;57.90
57857;DHT22;43683;48.650;9.290;2023-02-15T11:55:29;15.00;57.50
57857;DHT22;43683;48.650;9.290;2023-02-15T12:00:36;15.40;56.90
57857;DHT22;43683;48.650;9.290;2023-02-15T12:03:13;15.60;55.80
57857;DHT22;43683;48.650;9.290;2023-02-15T12:05:40;15.50;55.30
57857;DHT22;43683;48.650;9.290;2023-02-15T12:08:19;15.50;55.40
57857;DHT22;43683;48.650;9.290;2023-02-15T12:11:05;15.60;54.70
57857;DHT22;43683;48.650;9.290;2023-02-15T12:13:32;15.70;54.40
57857;DHT22;43683;48.650;9.290;2023-02-15T12:15:59;15.70;54.60
57857;DHT22;43683;48.650;9.290;2023-02-15T12:18:35;15.80;53.70
57857;DHT22;43683;48.650;9.290;2023-02-15T12:23:43;15.90;53.20
57857;DHT22;43683;48.650;9.290;2023-02-15T12:26:12;16.00;53.00
57857;DHT22;43683;48.650;9.290;2023-02-15T12:28:49;16.10;53.10
57857;DHT22;43683;48.650;9.290;2023-02-15T12:31:37;16.20;52.40
57857;DHT22;43683;48.650;9.290;2023-02-15T12:34:12;16.30;52.60
57857;DHT22;43683;48.650;9.290;2023-02-15T12:36:43;16.30;52.50
57857;DHT22;43683;48.650;9.290;2023-02-15T12:39:18;16.20;52.70
57857;DHT22;43683;48.650;9.290;2023-02-15T12:42:14;16.00;52.50
57857;DHT22;43683;48.650;9.290;2023-02-15T12:44:36;15.90;52.70
57857;DHT22;43683;48.650;9.290;2023-02-15T12:49:35;15.50;52.30
57857;DHT22;43683;48.650;9.290;2023-02-15T12:54:46;15.70;51.90
57857;DHT22;43683;48.650;9.290;2023-02-15T12:57:30;15.70;51.80
57857;DHT22;43683;48.650;9.290;2023-02-15T13:00:02;15.90;51.50
57857;DHT22;43683;48.650;9.290;2023-02-15T13:03:01;15.90;51.30
57857;DHT22;43683;48.650;9.290;2023-02-15T13:05:38;15.90;51.30
57857;DHT22;43683;48.650;9.290;2023-02-15T13:10:40;16.30;50.70
57857;DHT22;43683;48.650;9.290;2023-02-15T13:13:14;16.30;50.80
57857;DHT22;43683;48.650;9.290;2023-02-15T13:15:44;16.40;50.30
57857;DHT22;43683;48.650;9.290;2023-02-15T13:21:14;16.60;49.50
57857;DHT22;43683;48.650;9.290;2023-02-15T13:23:46;16.70;49.40
57857;DHT22;43683;48.650;9.290;2023-02-15T13:26:18;16.90;49.30
57857;DHT22;43683;48.650;9.290;2023-02-15T13:28:47;16.90;49.20
57857;DHT22;43683;48.650;9.290;2023-02-15T13:31:19;16.80;49.10
57857;DHT22;43683;48.650;9.290;2023-02-15T13:34:20;16.70;49.00
57857;DHT22;43683;48.650;9.290;2023-02-15T13:39:40;16.70;48.10
57857;DHT22;43683;48.650;9.290;2023-02-15T13:42:26;16.80;47.70
57857;DHT22;43683;48.650;9.290;2023-02-15T13:55:53;17.20;47.80
57857;DHT22;43683;48.650;9.290;2023-02-15T14:17:45;17.80;46.50
57857;DHT22;43683;48.650;9.290;2023-02-15T14:28:49;17.80;45.70
57857;DHT22;43683;48.650;9.290;2023-02-15T14:31:19;17.90;47.20
57857;DHT22;43683;48.650;9.290;2023-02-15T14:33:57;18.00;46.80
57857;DHT22;43683;48.650;9.290;2023-02-15T14:36:24;18.10;45.90
57857;DHT22;43683;48.650;9.290;2023-02-15T14:39:16;17.90;46.10
57857;DHT22;43683;48.650;9.290;2023-02-15T14:42:34;17.70;46.90
57857;DHT22;43683;48.650;9.290;2023-02-15T14:45:19;17.40;46.80
57857;DHT22;43683;48.650;9.290;2023-02-15T14:48:05;17.40;46.20
57857;DHT22;43683;48.650;9.290;2023-02-15T14:50:39;17.50;46.00
57857;DHT22;43683;48.650;9.290;2023-02-15T14:53:32;17.40;46.20
57857;DHT22;43683;48.650;9.290;2023-02-15T14:56:25;17.40;45.60
57857;DHT22;43683;48.650;9.290;2023-02-15T15:01:30;17.40;46.00
57857;DHT22;43683;48.650;9.290;2023-02-15T15:06:37;16.80;45.60
57857;DHT22;43683;48.650;9.290;2023-02-15T15:09:14;16.50;46.00
57857;DHT22;43683;48.650;9.290;2023-02-15T15:11:46;16.30;45.60
57857;DHT22;43683;48.650;9.290;2023-02-15T15:16:57;16.20;45.20
57857;DHT22;43683;48.650;9.290;2023-02-15T15:22:21;15.30;44.90
57857;DHT22;43683;48.650;9.290;2023-02-15T15:25:11;14.70;45.20
57857;DHT22;43683;48.650;9.290;2023-02-15T15:27:38;14.20;45.50
57857;DHT22;43683;48.650;9.290;2023-02-15T15:33:29;13.50;46.10
57857;DHT22;43683;48.650;9.290;2023-02-15T15:35:33;13.10;46.40
57857;DHT22;43683;48.650;9.290;2023-02-15T15:40:53;12.70;46.70
57857;DHT22;43683;48.650;9.290;2023-02-15T15:44:08;12.40;46.90
57857;DHT22;43683;48.650;9.290;2023-02-15T15:48:44;12.10;47.20
57857;DHT22;43683;48.650;9.290;2023-02-15T15:51:23;11.90;47.30
57857;DHT22;43683;48.650;9.290;2023-02-15T15:53:53;11.70;47.60
57857;DHT22;43683;48.650;9.290;2023-02-15T15:56:21;11.50;47.90
57857;DHT22;43683;48.650;9.290;2023-02-15T15:58:54;11.40;48.10
57857;DHT22;43683;48.650;9.290;2023-02-15T16:01:27;11.20;48.30
57857;DHT22;43683;48.650;9.290;2023-02-15T16:03:55;11.00;48.60
57857;DHT22;43683;48.650;9.290;2023-02-15T16:06:37;10.80;49.20
57857;DHT22;43683;48.650;9.290;2023-02-15T16:09:16;10.60;50.20
57857;DHT22;43683;48.650;9.290;2023-02-15T16:11:43;10.40;50.80
57857;DHT22;43683;48.650;9.290;2023-02-15T16:14:15;10.20;51.20
57857;DHT22;43683;48.650;9.290;2023-02-15T16:16:47;10.00;52.00
57857;DHT22;43683;48.650;9.290;2023-02-15T16:19:22;9.80;52.60
57857;DHT22;43683;48.650;9.290;2023-02-15T16:21:50;9.60;53.20
57857;DHT22;43683;48.650;9.290;2023-02-15T16:24:26;9.40;53.70
57857;DHT22;43683;48.650;9.290;2023-02-15T16:29:42;9.10;54.90
57857;DHT22;43683;48.650;9.290;2023-02-15T16:32:24;8.90;54.90
57857;DHT22;43683;48.650;9.290;2023-02-15T16:34:52;8.80;55.40
57857;DHT22;43683;48.650;9.290;2023-02-15T16:37:21;8.60;55.60
57857;DHT22;43683;48.650;9.290;2023-02-15T16:39:51;8.40;56.10
57857;DHT22;43683;48.650;9.290;2023-02-15T16:42:18;8.20;56.60
57857;DHT22;43683;48.650;9.290;2023-02-15T16:44:45;7.90;57.30
57857;DHT22;43683;48.650;9.290;2023-02-15T16:47:28;7.70;57.70
57857;DHT22;43683;48.650;9.290;2023-02-15T16:49:57;7.50;58.20
57857;DHT22;43683;48.650;9.290;2023-02-15T16:52:27;7.40;58.30
57857;DHT22;43683;48.650;9.290;2023-02-15T16:55:02;7.20;58.60
57857;DHT22;43683;48.650;9.290;2023-02-15T16:57:32;7.10;58.80
57857;DHT22;43683;48.650;9.290;2023-02-15T17:00:05;6.90;59.00
57857;DHT22;43683;48.650;9.290;2023-02-15T17:02:33;6.70;59.50
57857;DHT22;43683;48.650;9.290;2023-02-15T17:07:41;6.40;60.20
57857;DHT22;43683;48.650;9.290;2023-02-15T17:10:31;6.20;61.20
57857;DHT22;43683;48.650;9.290;2023-02-15T17:13:03;5.90;61.10
57857;DHT22;43683;48.650;9.290;2023-02-15T17:15:34;5.70;61.30
57857;DHT22;43683;48.650;9.290;2023-02-15T17:18:13;5.60;61.70
57857;DHT22;43683;48.650;9.290;2023-02-15T17:20:41;5.40;61.90
57857;DHT22;43683;48.650;9.290;2023-02-15T17:23:26;5.10;62.10
57857;DHT22;43683;48.650;9.290;2023-02-15T17:25:53;4.90;63.00
57857;DHT22;43683;48.650;9.290;2023-02-15T17:28:25;4.60;63.10
57857;DHT22;43683;48.650;9.290;2023-02-15T17:30:52;4.40;63.60
57857;DHT22;43683;48.650;9.290;2023-02-15T17:36:17;4.10;64.50
57857;DHT22;43683;48.650;9.290;2023-02-15T17:39:18;4.00;64.60
57857;DHT22;43683;48.650;9.290;2023-02-15T17:41:43;3.80;64.90
57857;DHT22;43683;48.650;9.290;2023-02-15T17:44:09;3.80;64.50
57857;DHT22;43683;48.650;9.290;2023-02-15T17:46:39;3.80;64.60
57857;DHT22;43683;48.650;9.290;2023-02-15T17:49:05;3.80;64.50
57857;DHT22;43683;48.650;9.290;2023-02-15T17:51:31;3.90;64.50
57857;DHT22;43683;48.650;9.290;2023-02-15T17:54:00;3.80;64.50
57857;DHT22;43683;48.650;9.290;2023-02-15T17:56:49;3.90;64.50
57857;DHT22;43683;48.650;9.290;2023-02-15T17:59:14;3.80;64.70
57857;DHT22;43683;48.650;9.290;2023-02-15T18:01:47;3.70;64.80
57857;DHT22;43683;48.650;9.290;2023-02-15T18:04:34;3.70;65.10
57857;DHT22;43683;48.650;9.290;2023-02-15T18:07:19;3.60;64.90
57857;DHT22;43683;48.650;9.290;2023-02-15T18:10:14;3.60;65.00
57857;DHT22;43683;48.650;9.290;2023-02-15T18:12:58;3.50;65.50
57857;DHT22;43683;48.650;9.290;2023-02-15T18:15:24;3.20;65.70
57857;DHT22;43683;48.650;9.290;2023-02-15T18:17:50;3.00;66.30
57857;DHT22;43683;48.650;9.290;2023-02-15T18:20:33;2.90;66.50
57857;DHT22;43683;48.650;9.290;2023-02-15T18:23:01;2.80;67.10
57857;DHT22;43683;48.650;9.290;2023-02-15T18:25:26;2.70;67.00
57857;DHT22;43683;48.650;9.290;2023-02-15T18:27:52;2.60;67.30
57857;DHT22;43683;48.650;9.290;2023-02-15T18:30:20;2.40;67.60
57857;DHT22;43683;48.650;9.290;2023-02-15T18:32:47;2.30;68.00
57857;DHT22;43683;48.650;9.290;2023-02-15T18:35:16;2.20;68.10
57857;DHT22;43683;48.650;9.290;2023-02-15T18:37:43;2.20;68.40
57857;DHT22;43683;48.650;9.290;2023-02-15T18:40:21;2.10;68.30
57857;DHT22;43683;48.650;9.290;2023-02-15T18:42:47;2.10;68.40
57857;DHT22;43683;48.650;9.290;2023-02-15T18:47:44;1.90;68.60
57857;DHT22;43683;48.650;9.290;2023-02-15T18:50:15;1.90;68.60
57857;DHT22;43683;48.650;9.290;2023-02-15T18:52:43;1.90;68.70
57857;DHT22;43683;48.650;9.290;2023-02-15T18:55:21;1.80;68.90